sensor_id;sensor_type;location;lat;lon;timestamp;P1;durP1;ratioP1;P2;durP2;ratioP2
21593;SDS011;10959;51.328;7.322;2023-04-08T00:01:11;20.40;;;17.60;;
21593;SDS011;10959;51.328;7.322;2023-04-08T00:03:39;57.30;;;19.30;;
21593;SDS011;10959;51.328;7.322;2023-04-08T00:06:05;28.03;;;17.40;;
21593;SDS011;10959;51.328;7.322;2023-04-08T00:08:32;18.37;;;16.43;;
21593;SDS011;10959;51.328;7.322;2023-04-08T00:10:58;18.73;;;16.60;;
21593;SDS011;10959;51.328;7.322;2023-04-08T00:13:25;21.00;;;16.97;;
21593;SDS011;10959;51.328;7.322;2023-04-08T00:15:51;19.83;;;14.90;;
21593;SDS011;10959;51.328;7.322;2023-04-08T00:18:18;16.30;;;14.60;;
21593;SDS011;10959;51.328;7.322;2023-04-08T00:20:46;33.33;;;17.30;;
21593;SDS011;10959;51.328;7.322;2023-04-08T00:23:12;28.47;;;17.47;;
21593;SDS011;10959;51.328;7.322;2023-04-08T00:25:39;19.07;;;17.07;;
21593;SDS011;10959;51.328;7.322;2023-04-08T00:28:05;22.30;;;17.97;;
21593;SDS011;10959;51.328;7.322;2023-04-08T00:30:32;59.60;;;20.07;;
21593;SDS011;10959;51.328;7.322;2023-04-08T00:32:58;21.57;;;17.97;;
21593;SDS011;10959;51.328;7.322;2023-04-08T00:35:25;51.77;;;23.80;;
21593;SDS011;10959;51.328;7.322;2023-04-08T00:37:53;28.83;;;19.50;;
21593;SDS011;10959;51.328;7.322;2023-04-08T00:40:20;224.47;;;32.93;;
21593;SDS011;10959;51.328;7.322;2023-04-08T00:42:46;234.50;;;32.33;;
21593;SDS011;10959;51.328;7.322;2023-04-08T00:45:13;173.80;;;29.00;;
21593;SDS011;10959;51.328;7.322;2023-04-08T00:47:40;37.33;;;24.20;;
21593;SDS011;10959;51.328;7.322;2023-04-08T00:50:07;547.17;;;47.10;;
21593;SDS011;10959;51.328;7.322;2023-04-08T00:52:35;80.20;;;23.87;;
21593;SDS011;10959;51.328;7.322;2023-04-08T00:55:03;26.80;;;20.50;;
21593;SDS011;10959;51.328;7.322;2023-04-08T00:57:30;356.67;;;33.23;;
21593;SDS011;10959;51.328;7.322;2023-04-08T00:59:57;48.37;;;21.47;;
21593;SDS011;10959;51.328;7.322;2023-04-08T01:02:26;577.87;;;45.43;;
21593;SDS011;10959;51.328;7.322;2023-04-08T01:05:01;41.27;;;22.87;;
21593;SDS011;10959;51.328;7.322;2023-04-08T01:07:30;39.33;;;21.33;;
21593;SDS011;10959;51.328;7.322;2023-04-08T01:10:01;227.63;;;28.10;;
21593;SDS011;10959;51.328;7.322;2023-04-08T01:12:32;35.30;;;19.30;;
21593;SDS011;10959;51.328;7.322;2023-04-08T01:15:06;26.63;;;19.10;;
21593;SDS011;10959;51.328;7.322;2023-04-08T01:17:36;25.50;;;18.93;;
21593;SDS011;10959;51.328;7.322;2023-04-08T01:20:03;29.33;;;20.13;;
21593;SDS011;10959;51.328;7.322;2023-04-08T01:22:34;33.93;;;18.77;;
21593;SDS011;10959;51.328;7.322;2023-04-08T01:25:09;40.53;;;19.87;;
21593;SDS011;10959;51.328;7.322;2023-04-08T01:27:43;99.47;;;21.87;;
21593;SDS011;10959;51.328;7.322;2023-04-08T01:30:12;39.77;;;20.60;;
21593;SDS011;10959;51.328;7.322;2023-04-08T01:32:40;26.80;;;18.27;;
21593;SDS011;10959;51.328;7.322;2023-04-08T01:35:09;33.27;;;19.60;;
21593;SDS011;10959;51.328;7.322;2023-04-08T01:37:36;39.87;;;17.23;;
21593;SDS011;10959;51.328;7.322;2023-04-08T01:40:05;58.63;;;19.17;;
21593;SDS011;10959;51.328;7.322;2023-04-08T01:42:35;23.83;;;16.13;;
21593;SDS011;10959;51.328;7.322;2023-04-08T01:45:04;43.57;;;16.80;;
21593;SDS011;10959;51.328;7.322;2023-04-08T01:47:32;44.47;;;17.37;;
21593;SDS011;10959;51.328;7.322;2023-04-08T01:49:59;81.73;;;17.73;;
21593;SDS011;10959;51.328;7.322;2023-04-08T01:52:27;56.00;;;14.33;;
21593;SDS011;10959;51.328;7.322;2023-04-08T01:54:54;24.00;;;14.60;;
21593;SDS011;10959;51.328;7.322;2023-04-08T01:57:21;37.23;;;15.23;;
21593;SDS011;10959;51.328;7.322;2023-04-08T01:59:50;34.53;;;15.67;;
21593;SDS011;10959;51.328;7.322;2023-04-08T02:02:20;22.93;;;13.50;;
21593;SDS011;10959;51.328;7.322;2023-04-08T02:04:47;52.63;;;15.03;;
21593;SDS011;10959;51.328;7.322;2023-04-08T02:07:14;29.10;;;13.57;;
21593;SDS011;10959;51.328;7.322;2023-04-08T02:09:41;26.03;;;13.97;;
21593;SDS011;10959;51.328;7.322;2023-04-08T02:12:07;21.03;;;12.80;;
21593;SDS011;10959;51.328;7.322;2023-04-08T02:14:33;20.40;;;13.17;;
21593;SDS011;10959;51.328;7.322;2023-04-08T02:17:01;21.33;;;12.77;;
21593;SDS011;10959;51.328;7.322;2023-04-08T02:19:37;14.73;;;12.37;;
21593;SDS011;10959;51.328;7.322;2023-04-08T02:22:10;18.03;;;12.10;;
21593;SDS011;10959;51.328;7.322;2023-04-08T02:24:42;18.50;;;12.90;;
21593;SDS011;10959;51.328;7.322;2023-04-08T02:27:09;20.20;;;12.57;;
21593;SDS011;10959;51.328;7.322;2023-04-08T02:29:36;19.67;;;11.93;;
21593;SDS011;10959;51.328;7.322;2023-04-08T02:32:06;26.93;;;12.47;;
21593;SDS011;10959;51.328;7.322;2023-04-08T02:34:37;31.17;;;13.97;;
21593;SDS011;10959;51.328;7.322;2023-04-08T02:37:05;35.23;;;13.00;;
21593;SDS011;10959;51.328;7.322;2023-04-08T02:39:33;18.03;;;11.47;;
21593;SDS011;10959;51.328;7.322;2023-04-08T02:41:59;14.87;;;11.20;;
21593;SDS011;10959;51.328;7.322;2023-04-08T02:44:26;20.13;;;11.27;;
21593;SDS011;10959;51.328;7.322;2023-04-08T02:46:52;18.47;;;11.00;;
21593;SDS011;10959;51.328;7.322;2023-04-08T02:49:19;22.17;;;10.37;;
21593;SDS011;10959;51.328;7.322;2023-04-08T02:51:47;101.03;;;14.47;;
21593;SDS011;10959;51.328;7.322;2023-04-08T02:54:14;17.00;;;10.27;;
21593;SDS011;10959;51.328;7.322;2023-04-08T02:56:40;48.73;;;11.10;;
21593;SDS011;10959;51.328;7.322;2023-04-08T02:59:07;17.57;;;10.10;;
21593;SDS011;10959;51.328;7.322;2023-04-08T03:01:33;20.23;;;9.77;;
21593;SDS011;10959;51.328;7.322;2023-04-08T03:04:00;18.97;;;9.43;;
21593;SDS011;10959;51.328;7.322;2023-04-08T03:06:26;12.80;;;9.17;;
21593;SDS011;10959;51.328;7.322;2023-04-08T03:08:54;33.20;;;11.03;;
21593;SDS011;10959;51.328;7.322;2023-04-08T03:11:20;12.33;;;9.27;;
21593;SDS011;10959;51.328;7.322;2023-04-08T03:13:47;17.17;;;9.90;;
21593;SDS011;10959;51.328;7.322;2023-04-08T03:16:13;30.60;;;9.10;;
21593;SDS011;10959;51.328;7.322;2023-04-08T03:18:40;14.43;;;9.03;;
21593;SDS011;10959;51.328;7.322;2023-04-08T03:21:06;9.70;;;7.63;;
21593;SDS011;10959;51.328;7.322;2023-04-08T03:23:33;17.77;;;8.87;;
21593;SDS011;10959;51.328;7.322;2023-04-08T03:26:01;12.57;;;8.00;;
21593;SDS011;10959;51.328;7.322;2023-04-08T03:28:27;12.73;;;8.63;;
21593;SDS011;10959;51.328;7.322;2023-04-08T03:30:53;11.90;;;7.80;;
21593;SDS011;10959;51.328;7.322;2023-04-08T03:33:20;15.03;;;8.37;;
21593;SDS011;10959;51.328;7.322;2023-04-08T03:35:46;47.90;;;10.40;;
21593;SDS011;10959;51.328;7.322;2023-04-08T03:38:13;9.70;;;8.23;;
21593;SDS011;10959;51.328;7.322;2023-04-08T03:40:39;16.23;;;8.40;;
21593;SDS011;10959;51.328;7.322;2023-04-08T03:43:07;22.80;;;9.13;;
21593;SDS011;10959;51.328;7.322;2023-04-08T03:45:35;13.60;;;8.53;;
21593;SDS011;10959;51.328;7.322;2023-04-08T03:48:02;25.57;;;8.43;;
21593;SDS011;10959;51.328;7.322;2023-04-08T03:50:28;63.07;;;11.93;;
21593;SDS011;10959;51.328;7.322;2023-04-08T03:52:55;19.13;;;8.70;;
21593;SDS011;10959;51.328;7.322;2023-04-08T03:55:21;9.73;;;8.07;;
21593;SDS011;10959;51.328;7.322;2023-04-08T03:57:48;15.03;;;7.90;;
21593;SDS011;10959;51.328;7.322;2023-04-08T04:00:16;8.47;;;7.20;;
21593;SDS011;10959;51.328;7.322;2023-04-08T04:02:42;11.57;;;7.57;;
21593;SDS011;10959;51.328;7.322;2023-04-08T04:05:09;25.77;;;8.30;;
21593;SDS011;10959;51.328;7.322;2023-04-08T04:07:35;8.07;;;7.27;;
21593;SDS011;10959;51.328;7.322;2023-04-08T04:10:02;12.60;;;8.33;;
21593;SDS011;10959;51.328;7.322;2023-04-08T04:12:29;18.87;;;9.00;;
21593;SDS011;10959;51.328;7.322;2023-04-08T04:14:55;10.77;;;7.97;;
21593;SDS011;10959;51.328;7.322;2023-04-08T04:17:23;16.47;;;7.50;;
21593;SDS011;10959;51.328;7.322;2023-04-08T04:19:49;9.93;;;8.03;;
21593;SDS011;10959;51.328;7.322;2023-04-08T04:22:16;10.33;;;8.13;;
21593;SDS011;10959;51.328;7.322;2023-04-08T04:24:45;8.40;;;7.50;;
21593;SDS011;10959;51.328;7.322;2023-04-08T04:27:12;11.70;;;7.33;;
21593;SDS011;10959;51.328;7.322;2023-04-08T04:29:38;8.77;;;6.97;;
21593;SDS011;10959;51.328;7.322;2023-04-08T04:32:05;13.10;;;7.90;;
21593;SDS011;10959;51.328;7.322;2023-04-08T04:34:33;25.27;;;8.63;;
21593;SDS011;10959;51.328;7.322;2023-04-08T04:36:59;17.23;;;7.97;;
21593;SDS011;10959;51.328;7.322;2023-04-08T04:39:26;22.43;;;9.00;;
21593;SDS011;10959;51.328;7.322;2023-04-08T04:41:52;13.60;;;7.87;;
21593;SDS011;10959;51.328;7.322;2023-04-08T04:44:19;10.47;;;7.83;;
21593;SDS011;10959;51.328;7.322;2023-04-08T04:46:45;8.90;;;7.33;;
21593;SDS011;10959;51.328;7.322;2023-04-08T04:49:12;13.77;;;8.13;;
21593;SDS011;10959;51.328;7.322;2023-04-08T04:51:40;13.13;;;7.97;;
21593;SDS011;10959;51.328;7.322;2023-04-08T04:54:06;11.77;;;7.40;;
21593;SDS011;10959;51.328;7.322;2023-04-08T04:56:32;19.00;;;7.60;;
21593;SDS011;10959;51.328;7.322;2023-04-08T04:58:59;9.73;;;7.20;;
21593;SDS011;10959;51.328;7.322;2023-04-08T05:01:25;11.40;;;7.33;;
21593;SDS011;10959;51.328;7.322;2023-04-08T05:03:52;10.27;;;6.53;;
21593;SDS011;10959;51.328;7.322;2023-04-08T05:06:19;8.07;;;6.80;;
21593;SDS011;10959;51.328;7.322;2023-04-08T05:08:47;9.77;;;6.90;;
21593;SDS011;10959;51.328;7.322;2023-04-08T05:11:15;8.63;;;6.87;;
21593;SDS011;10959;51.328;7.322;2023-04-08T05:13:42;14.17;;;6.50;;
21593;SDS011;10959;51.328;7.322;2023-04-08T05:16:08;11.43;;;6.90;;
21593;SDS011;10959;51.328;7.322;2023-04-08T05:18:35;20.00;;;7.90;;
21593;SDS011;10959;51.328;7.322;2023-04-08T05:21:02;15.43;;;6.97;;
21593;SDS011;10959;51.328;7.322;2023-04-08T05:23:28;11.10;;;6.63;;
21593;SDS011;10959;51.328;7.322;2023-04-08T05:25:56;6.77;;;6.10;;
21593;SDS011;10959;51.328;7.322;2023-04-08T05:28:22;12.13;;;6.93;;
21593;SDS011;10959;51.328;7.322;2023-04-08T05:30:49;6.77;;;5.87;;
21593;SDS011;10959;51.328;7.322;2023-04-08T05:33:16;9.47;;;6.23;;
21593;SDS011;10959;51.328;7.322;2023-04-08T05:35:43;15.20;;;6.70;;
21593;SDS011;10959;51.328;7.322;2023-04-08T05:38:09;8.00;;;6.53;;
21593;SDS011;10959;51.328;7.322;2023-04-08T05:40:36;10.33;;;7.10;;
21593;SDS011;10959;51.328;7.322;2023-04-08T05:43:04;8.33;;;6.43;;
21593;SDS011;10959;51.328;7.322;2023-04-08T05:45:30;24.90;;;8.53;;
21593;SDS011;10959;51.328;7.322;2023-04-08T05:47:57;19.03;;;7.27;;
21593;SDS011;10959;51.328;7.322;2023-04-08T05:50:23;25.83;;;7.13;;
21593;SDS011;10959;51.328;7.322;2023-04-08T05:52:50;11.83;;;7.17;;
21593;SDS011;10959;51.328;7.322;2023-04-08T05:55:16;8.07;;;6.27;;
21593;SDS011;10959;51.328;7.322;2023-04-08T05:57:43;7.10;;;6.40;;
21593;SDS011;10959;51.328;7.322;2023-04-08T06:00:11;8.07;;;6.87;;
21593;SDS011;10959;51.328;7.322;2023-04-08T06:02:38;10.40;;;6.30;;
21593;SDS011;10959;51.328;7.322;2023-04-08T06:05:04;7.07;;;6.13;;
21593;SDS011;10959;51.328;7.322;2023-04-08T06:07:31;8.60;;;6.93;;
21593;SDS011;10959;51.328;7.322;2023-04-08T06:09:58;7.77;;;6.23;;
21593;SDS011;10959;51.328;7.322;2023-04-08T06:12:24;9.07;;;7.20;;
21593;SDS011;10959;51.328;7.322;2023-04-08T06:14:52;7.00;;;6.03;;
21593;SDS011;10959;51.328;7.322;2023-04-08T06:17:21;7.50;;;6.70;;
21593;SDS011;10959;51.328;7.322;2023-04-08T06:19:47;9.00;;;7.43;;
21593;SDS011;10959;51.328;7.322;2023-04-08T06:22:13;8.97;;;7.37;;
21593;SDS011;10959;51.328;7.322;2023-04-08T06:24:40;8.47;;;7.10;;
21593;SDS011;10959;51.328;7.322;2023-04-08T06:27:06;8.10;;;6.97;;
21593;SDS011;10959;51.328;7.322;2023-04-08T06:29:33;8.67;;;7.77;;
21593;SDS011;10959;51.328;7.322;2023-04-08T06:31:59;9.93;;;7.50;;
21593;SDS011;10959;51.328;7.322;2023-04-08T06:34:27;7.93;;;6.97;;
21593;SDS011;10959;51.328;7.322;2023-04-08T06:36:53;8.57;;;7.53;;
21593;SDS011;10959;51.328;7.322;2023-04-08T06:39:20;8.07;;;7.00;;
21593;SDS011;10959;51.328;7.322;2023-04-08T06:41:46;9.30;;;8.27;;
21593;SDS011;10959;51.328;7.322;2023-04-08T06:44:13;10.23;;;8.03;;
21593;SDS011;10959;51.328;7.322;2023-04-08T06:46:39;11.27;;;9.10;;
21593;SDS011;10959;51.328;7.322;2023-04-08T06:49:06;10.00;;;8.80;;
21593;SDS011;10959;51.328;7.322;2023-04-08T06:51:34;11.13;;;9.27;;
21593;SDS011;10959;51.328;7.322;2023-04-08T06:54:00;12.63;;;9.27;;
21593;SDS011;10959;51.328;7.322;2023-04-08T06:56:27;11.43;;;9.87;;
21593;SDS011;10959;51.328;7.322;2023-04-08T06:58:53;12.27;;;9.67;;
21593;SDS011;10959;51.328;7.322;2023-04-08T07:01:20;15.33;;;11.53;;
21593;SDS011;10959;51.328;7.322;2023-04-08T07:03:50;15.03;;;12.27;;
21593;SDS011;10959;51.328;7.322;2023-04-08T07:06:16;11.37;;;10.10;;
21593;SDS011;10959;51.328;7.322;2023-04-08T07:08:44;13.03;;;10.50;;
21593;SDS011;10959;51.328;7.322;2023-04-08T07:11:11;13.17;;;10.77;;
21593;SDS011;10959;51.328;7.322;2023-04-08T07:13:37;13.27;;;10.57;;
21593;SDS011;10959;51.328;7.322;2023-04-08T07:16:04;13.50;;;10.47;;
21593;SDS011;10959;51.328;7.322;2023-04-08T07:18:31;15.50;;;11.90;;
21593;SDS011;10959;51.328;7.322;2023-04-08T07:20:57;20.60;;;13.93;;
21593;SDS011;10959;51.328;7.322;2023-04-08T07:23:25;24.50;;;15.43;;
21593;SDS011;10959;51.328;7.322;2023-04-08T07:25:52;26.43;;;15.90;;
21593;SDS011;10959;51.328;7.322;2023-04-08T07:28:19;38.33;;;19.90;;
21593;SDS011;10959;51.328;7.322;2023-04-08T07:30:45;55.53;;;24.27;;
21593;SDS011;10959;51.328;7.322;2023-04-08T07:33:12;20.97;;;14.47;;
21593;SDS011;10959;51.328;7.322;2023-04-08T07:35:39;22.10;;;15.00;;
21593;SDS011;10959;51.328;7.322;2023-04-08T07:38:06;20.33;;;14.07;;
21593;SDS011;10959;51.328;7.322;2023-04-08T07:40:35;20.03;;;14.63;;
21593;SDS011;10959;51.328;7.322;2023-04-08T07:43:03;23.20;;;14.60;;
21593;SDS011;10959;51.328;7.322;2023-04-08T07:45:29;25.07;;;16.70;;
21593;SDS011;10959;51.328;7.322;2023-04-08T07:47:56;20.47;;;15.10;;
21593;SDS011;10959;51.328;7.322;2023-04-08T07:50:22;18.93;;;15.47;;
21593;SDS011;10959;51.328;7.322;2023-04-08T07:52:48;19.07;;;15.23;;
21593;SDS011;10959;51.328;7.322;2023-04-08T07:55:17;20.43;;;16.87;;
21593;SDS011;10959;51.328;7.322;2023-04-08T07:57:43;19.60;;;16.13;;
21593;SDS011;10959;51.328;7.322;2023-04-08T08:00:12;21.87;;;16.40;;
21593;SDS011;10959;51.328;7.322;2023-04-08T08:02:44;18.47;;;15.07;;
21593;SDS011;10959;51.328;7.322;2023-04-08T08:05:12;20.43;;;17.00;;
21593;SDS011;10959;51.328;7.322;2023-04-08T08:07:38;21.33;;;16.43;;
21593;SDS011;10959;51.328;7.322;2023-04-08T08:10:05;19.23;;;16.23;;
21593;SDS011;10959;51.328;7.322;2023-04-08T08:12:32;25.07;;;18.77;;
21593;SDS011;10959;51.328;7.322;2023-04-08T08:14:59;25.00;;;20.17;;
21593;SDS011;10959;51.328;7.322;2023-04-08T08:17:27;22.30;;;16.77;;
21593;SDS011;10959;51.328;7.322;2023-04-08T08:19:55;21.50;;;18.90;;
21593;SDS011;10959;51.328;7.322;2023-04-08T08:22:21;26.07;;;20.83;;
21593;SDS011;10959;51.328;7.322;2023-04-08T08:24:48;24.07;;;18.77;;
21593;SDS011;10959;51.328;7.322;2023-04-08T08:27:15;25.20;;;19.93;;
21593;SDS011;10959;51.328;7.322;2023-04-08T08:29:41;27.73;;;22.60;;
21593;SDS011;10959;51.328;7.322;2023-04-08T08:32:08;26.83;;;20.90;;
21593;SDS011;10959;51.328;7.322;2023-04-08T08:34:36;30.53;;;23.03;;
21593;SDS011;10959;51.328;7.322;2023-04-08T08:37:02;36.07;;;28.70;;
21593;SDS011;10959;51.328;7.322;2023-04-08T08:39:29;38.80;;;30.37;;
21593;SDS011;10959;51.328;7.322;2023-04-08T08:41:56;37.90;;;28.47;;
21593;SDS011;10959;51.328;7.322;2023-04-08T08:44:22;40.33;;;30.23;;
21593;SDS011;10959;51.328;7.322;2023-04-08T08:46:49;49.60;;;37.93;;
21593;SDS011;10959;51.328;7.322;2023-04-08T08:49:15;44.30;;;32.37;;
21593;SDS011;10959;51.328;7.322;2023-04-08T08:51:43;42.43;;;32.77;;
21593;SDS011;10959;51.328;7.322;2023-04-08T08:54:11;58.33;;;40.07;;
21593;SDS011;10959;51.328;7.322;2023-04-08T08:56:38;43.00;;;31.90;;
21593;SDS011;10959;51.328;7.322;2023-04-08T08:59:07;47.27;;;35.83;;
21593;SDS011;10959;51.328;7.322;2023-04-08T09:01:34;58.60;;;41.63;;
21593;SDS011;10959;51.328;7.322;2023-04-08T09:04:05;48.00;;;37.30;;
21593;SDS011;10959;51.328;7.322;2023-04-08T09:06:33;47.33;;;35.90;;
21593;SDS011;10959;51.328;7.322;2023-04-08T09:09:01;46.13;;;35.33;;
21593;SDS011;10959;51.328;7.322;2023-04-08T09:11:30;52.60;;;37.90;;
21593;SDS011;10959;51.328;7.322;2023-04-08T09:13:56;39.80;;;32.10;;
21593;SDS011;10959;51.328;7.322;2023-04-08T09:16:23;35.73;;;27.03;;
21593;SDS011;10959;51.328;7.322;2023-04-08T09:18:50;36.27;;;30.07;;
21593;SDS011;10959;51.328;7.322;2023-04-08T09:21:17;34.03;;;26.67;;
21593;SDS011;10959;51.328;7.322;2023-04-08T09:23:48;36.33;;;29.67;;
21593;SDS011;10959;51.328;7.322;2023-04-08T09:26:17;35.83;;;28.73;;
21593;SDS011;10959;51.328;7.322;2023-04-08T09:28:56;29.00;;;22.57;;
21593;SDS011;10959;51.328;7.322;2023-04-08T09:31:24;27.70;;;22.63;;
21593;SDS011;10959;51.328;7.322;2023-04-08T09:33:53;27.37;;;23.33;;
21593;SDS011;10959;51.328;7.322;2023-04-08T09:36:20;29.87;;;21.93;;
21593;SDS011;10959;51.328;7.322;2023-04-08T09:38:47;24.73;;;20.90;;
21593;SDS011;10959;51.328;7.322;2023-04-08T09:41:15;20.90;;;17.37;;
21593;SDS011;10959;51.328;7.322;2023-04-08T09:43:46;23.40;;;19.63;;
21593;SDS011;10959;51.328;7.322;2023-04-08T09:46:14;21.77;;;17.53;;
21593;SDS011;10959;51.328;7.322;2023-04-08T09:48:45;22.07;;;19.77;;
21593;SDS011;10959;51.328;7.322;2023-04-08T09:51:17;21.90;;;18.07;;
21593;SDS011;10959;51.328;7.322;2023-04-08T09:53:45;21.93;;;18.47;;
21593;SDS011;10959;51.328;7.322;2023-04-08T09:56:13;17.93;;;15.47;;
21593;SDS011;10959;51.328;7.322;2023-04-08T09:58:49;17.40;;;15.60;;
21593;SDS011;10959;51.328;7.322;2023-04-08T10:01:21;18.30;;;16.37;;
21593;SDS011;10959;51.328;7.322;2023-04-08T10:03:53;18.20;;;15.80;;
21593;SDS011;10959;51.328;7.322;2023-04-08T10:06:22;14.10;;;12.60;;
21593;SDS011;10959;51.328;7.322;2023-04-08T10:08:53;17.63;;;14.70;;
21593;SDS011;10959;51.328;7.322;2023-04-08T10:11:22;19.77;;;17.80;;
21593;SDS011;10959;51.328;7.322;2023-04-08T10:13:49;16.90;;;15.10;;
21593;SDS011;10959;51.328;7.322;2023-04-08T10:16:17;14.83;;;12.83;;
21593;SDS011;10959;51.328;7.322;2023-04-08T10:18:49;14.40;;;12.90;;
21593;SDS011;10959;51.328;7.322;2023-04-08T10:21:32;15.47;;;13.73;;
21593;SDS011;10959;51.328;7.322;2023-04-08T10:23:59;14.80;;;13.27;;
21593;SDS011;10959;51.328;7.322;2023-04-08T10:26:32;14.00;;;12.60;;
21593;SDS011;10959;51.328;7.322;2023-04-08T10:32:04;15.17;;;13.57;;
21593;SDS011;10959;51.328;7.322;2023-04-08T10:34:30;14.27;;;12.80;;
21593;SDS011;10959;51.328;7.322;2023-04-08T10:36:57;15.47;;;13.87;;
21593;SDS011;10959;51.328;7.322;2023-04-08T10:39:26;14.87;;;13.40;;
21593;SDS011;10959;51.328;7.322;2023-04-08T10:41:54;15.63;;;13.47;;
21593;SDS011;10959;51.328;7.322;2023-04-08T10:44:22;13.27;;;11.97;;
21593;SDS011;10959;51.328;7.322;2023-04-08T10:46:50;16.00;;;14.40;;
21593;SDS011;10959;51.328;7.322;2023-04-08T10:49:27;14.07;;;12.57;;
21593;SDS011;10959;51.328;7.322;2023-04-08T10:51:57;13.30;;;11.57;;
21593;SDS011;10959;51.328;7.322;2023-04-08T10:54:24;13.10;;;10.93;;
21593;SDS011;10959;51.328;7.322;2023-04-08T10:56:51;11.10;;;9.20;;
21593;SDS011;10959;51.328;7.322;2023-04-08T10:59:27;10.00;;;8.93;;
21593;SDS011;10959;51.328;7.322;2023-04-08T11:01:56;11.33;;;10.00;;
21593;SDS011;10959;51.328;7.322;2023-04-08T11:04:23;11.00;;;8.33;;
21593;SDS011;10959;51.328;7.322;2023-04-08T11:06:51;8.70;;;7.90;;
21593;SDS011;10959;51.328;7.322;2023-04-08T11:09:17;13.47;;;10.00;;
21593;SDS011;10959;51.328;7.322;2023-04-08T11:11:44;8.57;;;7.77;;
21593;SDS011;10959;51.328;7.322;2023-04-08T11:14:11;8.73;;;7.73;;
21593;SDS011;10959;51.328;7.322;2023-04-08T11:16:39;9.93;;;8.30;;
21593;SDS011;10959;51.328;7.322;2023-04-08T11:19:06;8.50;;;7.70;;
21593;SDS011;10959;51.328;7.322;2023-04-08T11:21:36;9.73;;;8.17;;
21593;SDS011;10959;51.328;7.322;2023-04-08T11:24:06;9.60;;;8.70;;
21593;SDS011;10959;51.328;7.322;2023-04-08T11:26:36;8.80;;;8.00;;
21593;SDS011;10959;51.328;7.322;2023-04-08T11:29:02;7.80;;;7.00;;
21593;SDS011;10959;51.328;7.322;2023-04-08T11:31:30;9.97;;;9.10;;
21593;SDS011;10959;51.328;7.322;2023-04-08T11:33:59;8.73;;;8.00;;
21593;SDS011;10959;51.328;7.322;2023-04-08T11:36:27;9.00;;;8.20;;
21593;SDS011;10959;51.328;7.322;2023-04-08T11:38:54;8.67;;;7.90;;
21593;SDS011;10959;51.328;7.322;2023-04-08T11:41:20;8.73;;;7.93;;
21593;SDS011;10959;51.328;7.322;2023-04-08T11:43:51;11.20;;;8.33;;
21593;SDS011;10959;51.328;7.322;2023-04-08T11:46:19;9.37;;;8.20;;
21593;SDS011;10959;51.328;7.322;2023-04-08T11:48:59;8.90;;;7.60;;
21593;SDS011;10959;51.328;7.322;2023-04-08T11:51:27;8.77;;;7.97;;
21593;SDS011;10959;51.328;7.322;2023-04-08T11:53:54;9.17;;;8.13;;
21593;SDS011;10959;51.328;7.322;2023-04-08T11:56:21;9.30;;;8.50;;
21593;SDS011;10959;51.328;7.322;2023-04-08T11:58:48;11.07;;;8.17;;
21593;SDS011;10959;51.328;7.322;2023-04-08T12:01:15;10.03;;;9.03;;
21593;SDS011;10959;51.328;7.322;2023-04-08T12:03:55;9.77;;;8.87;;
21593;SDS011;10959;51.328;7.322;2023-04-08T12:06:24;10.53;;;9.53;;
21593;SDS011;10959;51.328;7.322;2023-04-08T12:08:51;11.60;;;10.50;;
21593;SDS011;10959;51.328;7.322;2023-04-08T12:11:18;10.10;;;9.17;;
21593;SDS011;10959;51.328;7.322;2023-04-08T12:13:45;10.80;;;9.83;;
21593;SDS011;10959;51.328;7.322;2023-04-08T12:16:13;11.57;;;10.47;;
21593;SDS011;10959;51.328;7.322;2023-04-08T12:18:40;13.07;;;10.17;;
21593;SDS011;10959;51.328;7.322;2023-04-08T12:21:06;11.20;;;10.00;;
21593;SDS011;10959;51.328;7.322;2023-04-08T12:23:34;9.73;;;8.83;;
21593;SDS011;10959;51.328;7.322;2023-04-08T12:26:01;10.87;;;9.87;;
21593;SDS011;10959;51.328;7.322;2023-04-08T12:28:27;10.17;;;9.20;;
21593;SDS011;10959;51.328;7.322;2023-04-08T12:30:54;10.03;;;9.10;;
21593;SDS011;10959;51.328;7.322;2023-04-08T12:33:20;11.57;;;10.57;;
21593;SDS011;10959;51.328;7.322;2023-04-08T12:35:47;10.80;;;9.80;;
21593;SDS011;10959;51.328;7.322;2023-04-08T12:38:13;13.83;;;11.70;;
21593;SDS011;10959;51.328;7.322;2023-04-08T12:40:41;10.90;;;9.90;;
21593;SDS011;10959;51.328;7.322;2023-04-08T12:43:08;12.07;;;10.73;;
21593;SDS011;10959;51.328;7.322;2023-04-08T12:45:34;13.90;;;11.57;;
21593;SDS011;10959;51.328;7.322;2023-04-08T12:48:02;14.17;;;12.77;;
21593;SDS011;10959;51.328;7.322;2023-04-08T12:50:28;14.47;;;13.07;;
21593;SDS011;10959;51.328;7.322;2023-04-08T12:52:55;12.37;;;11.03;;
21593;SDS011;10959;51.328;7.322;2023-04-08T12:55:21;14.83;;;13.30;;
21593;SDS011;10959;51.328;7.322;2023-04-08T12:57:50;14.93;;;13.37;;
21593;SDS011;10959;51.328;7.322;2023-04-08T13:00:16;14.33;;;12.93;;
21593;SDS011;10959;51.328;7.322;2023-04-08T13:02:43;14.80;;;13.37;;
21593;SDS011;10959;51.328;7.322;2023-04-08T13:05:10;13.53;;;12.13;;
21593;SDS011;10959;51.328;7.322;2023-04-08T13:07:36;14.37;;;12.93;;
21593;SDS011;10959;51.328;7.322;2023-04-08T13:10:03;15.60;;;14.00;;
21593;SDS011;10959;51.328;7.322;2023-04-08T13:12:31;17.10;;;15.50;;
21593;SDS011;10959;51.328;7.322;2023-04-08T13:14:59;13.93;;;12.73;;
21593;SDS011;10959;51.328;7.322;2023-04-08T13:17:25;16.50;;;15.00;;
21593;SDS011;10959;51.328;7.322;2023-04-08T13:19:51;15.93;;;14.53;;
21593;SDS011;10959;51.328;7.322;2023-04-08T13:22:18;17.30;;;15.70;;
21593;SDS011;10959;51.328;7.322;2023-04-08T13:24:44;15.47;;;14.07;;
21593;SDS011;10959;51.328;7.322;2023-04-08T13:27:11;16.00;;;14.50;;
21593;SDS011;10959;51.328;7.322;2023-04-08T13:29:46;17.07;;;15.47;;
21593;SDS011;10959;51.328;7.322;2023-04-08T13:32:13;17.20;;;15.63;;
21593;SDS011;10959;51.328;7.322;2023-04-08T13:34:40;18.53;;;16.83;;
21593;SDS011;10959;51.328;7.322;2023-04-08T13:37:07;16.17;;;14.03;;
21593;SDS011;10959;51.328;7.322;2023-04-08T13:39:34;16.33;;;14.83;;
21593;SDS011;10959;51.328;7.322;2023-04-08T13:42:01;17.67;;;15.77;;
21593;SDS011;10959;51.328;7.322;2023-04-08T13:44:27;17.20;;;15.60;;
21593;SDS011;10959;51.328;7.322;2023-04-08T13:46:53;17.03;;;15.57;;
21593;SDS011;10959;51.328;7.322;2023-04-08T13:49:21;20.13;;;18.13;;
21593;SDS011;10959;51.328;7.322;2023-04-08T13:51:48;17.63;;;15.93;;
21593;SDS011;10959;51.328;7.322;2023-04-08T13:54:14;18.93;;;17.10;;
21593;SDS011;10959;51.328;7.322;2023-04-08T13:56:41;17.73;;;16.03;;
21593;SDS011;10959;51.328;7.322;2023-04-08T13:59:07;18.77;;;17.07;;
21593;SDS011;10959;51.328;7.322;2023-04-08T14:01:34;19.67;;;17.63;;
21593;SDS011;10959;51.328;7.322;2023-04-08T14:04:01;20.33;;;18.43;;
21593;SDS011;10959;51.328;7.322;2023-04-08T14:06:29;20.37;;;18.37;;
21593;SDS011;10959;51.328;7.322;2023-04-08T14:08:56;19.30;;;17.50;;
21593;SDS011;10959;51.328;7.322;2023-04-08T14:11:24;20.53;;;18.57;;
21593;SDS011;10959;51.328;7.322;2023-04-08T14:13:50;21.03;;;18.87;;
21593;SDS011;10959;51.328;7.322;2023-04-08T14:16:16;20.43;;;18.57;;
21593;SDS011;10959;51.328;7.322;2023-04-08T14:18:43;20.93;;;18.90;;
21593;SDS011;10959;51.328;7.322;2023-04-08T14:21:10;20.00;;;18.00;;
21593;SDS011;10959;51.328;7.322;2023-04-08T14:23:39;18.30;;;16.60;;
21593;SDS011;10959;51.328;7.322;2023-04-08T14:26:06;16.50;;;14.80;;
21593;SDS011;10959;51.328;7.322;2023-04-08T14:28:32;16.47;;;14.93;;
21593;SDS011;10959;51.328;7.322;2023-04-08T14:30:59;15.57;;;14.17;;
21593;SDS011;10959;51.328;7.322;2023-04-08T14:33:27;16.17;;;14.63;;